sensor_id;sensor_type;location;lat;lon;timestamp;temperature;humidity
11320;DHT22;5715;48.234;14.320;2023-02-11T00:02:04;-3.40;99.90
11320;DHT22;5715;48.234;14.320;2023-02-11T00:04:52;-3.50;99.90
11320;DHT22;5715;48.234;14.320;2023-02-11T00:07:40;-3.50;99.90
11320;DHT22;5715;48.234;14.320;2023-02-11T00:10:28;-3.50;99.90
11320;DHT22;5715;48.234;14.320;2023-02-11T00:13:15;-3.50;99.90
11320;DHT22;5715;48.234;14.320;2023-02-11T00:16:08;-3.50;99.90
11320;DHT22;5715;48.234;14.320;2023-02-11T00:18:59;-3.60;99.90
11320;DHT22;5715;48.234;14.320;2023-02-11T00:21:47;-3.60;99.90
11320;DHT22;5715;48.234;14.320;2023-02-11T00:24:35;-3.60;99.90
11320;DHT22;5715;48.234;14.320;2023-02-11T00:27:23;-3.60;99.90
11320;DHT22;5715;48.234;14.320;2023-02-11T00:30:12;-3.70;99.90
11320;DHT22;5715;48.234;14.320;2023-02-11T00:32:59;-3.70;99.90
11320;DHT22;5715;48.234;14.320;2023-02-11T00:35:47;-3.70;99.90
11320;DHT22;5715;48.234;14.320;2023-02-11T00:38:35;-3.70;99.90
11320;DHT22;5715;48.234;14.320;2023-02-11T00:41:24;-3.70;99.90
11320;DHT22;5715;48.234;14.320;2023-02-11T00:44:12;-3.70;99.90
11320;DHT22;5715;48.234;14.320;2023-02-11T00:47:00;-3.70;99.90
11320;DHT22;5715;48.234;14.320;2023-02-11T00:49:47;-3.70;99.90
11320;DHT22;5715;48.234;14.320;2023-02-11T00:52:35;-3.60;99.90
11320;DHT22;5715;48.234;14.320;2023-02-11T00:55:22;-3.60;99.90
11320;DHT22;5715;48.234;14.320;2023-02-11T00:58:10;-3.60;99.90
11320;DHT22;5715;48.234;14.320;2023-02-11T01:00:58;-3.60;99.90
11320;DHT22;5715;48.234;14.320;2023-02-11T01:03:46;-3.60;99.90
11320;DHT22;5715;48.234;14.320;2023-02-11T01:06:33;-3.50;99.90
11320;DHT22;5715;48.234;14.320;2023-02-11T01:09:21;-3.50;99.90
11320;DHT22;5715;48.234;14.320;2023-02-11T01:12:08;-3.60;99.90
11320;DHT22;5715;48.234;14.320;2023-02-11T01:14:56;-3.60;99.90
11320;DHT22;5715;48.234;14.320;2023-02-11T01:17:43;-3.70;99.90
11320;DHT22;5715;48.234;14.320;2023-02-11T01:20:31;-3.70;99.90
11320;DHT22;5715;48.234;14.320;2023-02-11T01:23:19;-3.80;99.90
11320;DHT22;5715;48.234;14.320;2023-02-11T01:26:07;-3.80;99.90
11320;DHT22;5715;48.234;14.320;2023-02-11T01:28:55;-3.90;99.90
11320;DHT22;5715;48.234;14.320;2023-02-11T01:31:42;-3.90;99.90
11320;DHT22;5715;48.234;14.320;2023-02-11T01:34:30;-3.90;99.90
11320;DHT22;5715;48.234;14.320;2023-02-11T01:37:17;-3.90;99.90
11320;DHT22;5715;48.234;14.320;2023-02-11T01:40:07;-3.90;99.90
11320;DHT22;5715;48.234;14.320;2023-02-11T01:42:58;-3.90;99.90
11320;DHT22;5715;48.234;14.320;2023-02-11T01:48:37;-4.00;99.90
11320;DHT22;5715;48.234;14.320;2023-02-11T01:51:42;-4.00;99.90
11320;DHT22;5715;48.234;14.320;2023-02-11T01:54:43;-3.90;99.90
11320;DHT22;5715;48.234;14.320;2023-02-11T01:57:57;-3.90;99.90
11320;DHT22;5715;48.234;14.320;2023-02-11T02:00:49;-3.90;99.90
11320;DHT22;5715;48.234;14.320;2023-02-11T02:03:39;-3.90;99.90
11320;DHT22;5715;48.234;14.320;2023-02-11T02:06:34;-3.90;99.90
11320;DHT22;5715;48.234;14.320;2023-02-11T02:09:34;-3.90;99.90
11320;DHT22;5715;48.234;14.320;2023-02-11T02:12:29;-3.90;99.90
11320;DHT22;5715;48.234;14.320;2023-02-11T02:25:52;-3.80;99.90
11320;DHT22;5715;48.234;14.320;2023-02-11T02:39:07;-3.90;99.90
11320;DHT22;5715;48.234;14.320;2023-02-11T02:42:03;-3.90;99.90
11320;DHT22;5715;48.234;14.320;2023-02-11T02:44:52;-4.00;99.90
11320;DHT22;5715;48.234;14.320;2023-02-11T02:47:42;-4.00;99.90
11320;DHT22;5715;48.234;14.320;2023-02-11T02:50:34;-3.90;99.90
11320;DHT22;5715;48.234;14.320;2023-02-11T02:53:57;-4.10;99.90
11320;DHT22;5715;48.234;14.320;2023-02-11T02:57:28;-4.10;99.90
11320;DHT22;5715;48.234;14.320;2023-02-11T03:00:33;-4.20;99.90
11320;DHT22;5715;48.234;14.320;2023-02-11T03:09:54;-4.20;99.90
11320;DHT22;5715;48.234;14.320;2023-02-11T03:12:47;-4.20;99.90
11320;DHT22;5715;48.234;14.320;2023-02-11T03:15:41;-4.20;99.90
11320;DHT22;5715;48.234;14.320;2023-02-11T03:18:34;-4.10;99.90
11320;DHT22;5715;48.234;14.320;2023-02-11T03:21:26;-4.10;99.90
11320;DHT22;5715;48.234;14.320;2023-02-11T03:24:32;-3.90;99.90
11320;DHT22;5715;48.234;14.320;2023-02-11T03:30:45;-4.00;99.90
11320;DHT22;5715;48.234;14.320;2023-02-11T03:34:05;-4.00;99.90
11320;DHT22;5715;48.234;14.320;2023-02-11T03:37:09;-4.00;99.90
11320;DHT22;5715;48.234;14.320;2023-02-11T03:40:28;-4.00;99.90
11320;DHT22;5715;48.234;14.320;2023-02-11T03:46:48;-4.00;99.90
11320;DHT22;5715;48.234;14.320;2023-02-11T03:49:38;-3.80;99.90
11320;DHT22;5715;48.234;14.320;2023-02-11T03:52:28;-3.70;99.90
11320;DHT22;5715;48.234;14.320;2023-02-11T03:55:19;-3.60;99.90
11320;DHT22;5715;48.234;14.320;2023-02-11T03:58:09;-3.60;99.90
11320;DHT22;5715;48.234;14.320;2023-02-11T04:00:57;-3.70;99.90
11320;DHT22;5715;48.234;14.320;2023-02-11T04:03:44;-3.60;99.90
11320;DHT22;5715;48.234;14.320;2023-02-11T04:06:32;-3.60;99.90
11320;DHT22;5715;48.234;14.320;2023-02-11T04:09:20;-3.70;99.90
11320;DHT22;5715;48.234;14.320;2023-02-11T04:12:07;-3.70;99.90
11320;DHT22;5715;48.234;14.320;2023-02-11T04:14:55;-3.60;99.90
11320;DHT22;5715;48.234;14.320;2023-02-11T04:17:43;-3.60;99.90
11320;DHT22;5715;48.234;14.320;2023-02-11T04:20:30;-3.60;99.90
11320;DHT22;5715;48.234;14.320;2023-02-11T04:23:18;-3.60;99.90
11320;DHT22;5715;48.234;14.320;2023-02-11T04:26:05;-3.60;99.90
11320;DHT22;5715;48.234;14.320;2023-02-11T04:28:53;-3.50;99.90
11320;DHT22;5715;48.234;14.320;2023-02-11T04:31:40;-3.50;99.90
11320;DHT22;5715;48.234;14.320;2023-02-11T04:34:28;-3.50;99.90
11320;DHT22;5715;48.234;14.320;2023-02-11T04:37:16;-3.40;99.90
11320;DHT22;5715;48.234;14.320;2023-02-11T04:40:04;-3.40;99.90
11320;DHT22;5715;48.234;14.320;2023-02-11T04:42:52;-3.30;99.90
11320;DHT22;5715;48.234;14.320;2023-02-11T04:45:40;-3.20;99.90
11320;DHT22;5715;48.234;14.320;2023-02-11T04:48:27;-3.20;99.90
11320;DHT22;5715;48.234;14.320;2023-02-11T04:51:15;-3.20;99.90
11320;DHT22;5715;48.234;14.320;2023-02-11T04:54:03;-3.20;99.90
11320;DHT22;5715;48.234;14.320;2023-02-11T04:56:50;-3.30;99.90
11320;DHT22;5715;48.234;14.320;2023-02-11T04:59:38;-3.20;99.90
11320;DHT22;5715;48.234;14.320;2023-02-11T05:02:26;-3.20;99.90
11320;DHT22;5715;48.234;14.320;2023-02-11T05:05:14;-3.30;99.90
11320;DHT22;5715;48.234;14.320;2023-02-11T05:08:01;-3.30;99.90
11320;DHT22;5715;48.234;14.320;2023-02-11T05:10:49;-3.30;99.90
11320;DHT22;5715;48.234;14.320;2023-02-11T05:13:36;-3.30;99.90
11320;DHT22;5715;48.234;14.320;2023-02-11T05:16:24;-3.20;99.90
11320;DHT22;5715;48.234;14.320;2023-02-11T05:19:12;-3.10;99.90
11320;DHT22;5715;48.234;14.320;2023-02-11T05:21:59;-2.90;99.90
11320;DHT22;5715;48.234;14.320;2023-02-11T05:24:49;-2.60;99.90
11320;DHT22;5715;48.234;14.320;2023-02-11T05:27:37;-2.80;99.90
11320;DHT22;5715;48.234;14.320;2023-02-11T05:30:24;-2.70;99.90
11320;DHT22;5715;48.234;14.320;2023-02-11T05:33:12;-2.70;99.90
11320;DHT22;5715;48.234;14.320;2023-02-11T05:36:02;-2.60;99.90
11320;DHT22;5715;48.234;14.320;2023-02-11T05:38:52;-2.60;99.90
11320;DHT22;5715;48.234;14.320;2023-02-11T05:41:39;-2.60;99.90
11320;DHT22;5715;48.234;14.320;2023-02-11T05:44:27;-2.60;99.90
11320;DHT22;5715;48.234;14.320;2023-02-11T05:47:14;-2.60;99.90
11320;DHT22;5715;48.234;14.320;2023-02-11T05:50:02;-2.50;99.90
11320;DHT22;5715;48.234;14.320;2023-02-11T05:52:50;-2.50;99.90
11320;DHT22;5715;48.234;14.320;2023-02-11T05:55:37;-2.50;99.90
11320;DHT22;5715;48.234;14.320;2023-02-11T05:58:25;-2.50;99.90
11320;DHT22;5715;48.234;14.320;2023-02-11T06:01:13;-2.50;99.90
11320;DHT22;5715;48.234;14.320;2023-02-11T06:04:00;-2.50;99.90
11320;DHT22;5715;48.234;14.320;2023-02-11T06:06:48;-2.60;99.90
11320;DHT22;5715;48.234;14.320;2023-02-11T06:09:37;-2.60;99.90
11320;DHT22;5715;48.234;14.320;2023-02-11T06:12:25;-2.50;99.90
11320;DHT22;5715;48.234;14.320;2023-02-11T06:15:13;-2.40;99.90
11320;DHT22;5715;48.234;14.320;2023-02-11T06:18:00;-2.30;99.90
11320;DHT22;5715;48.234;14.320;2023-02-11T06:20:48;-2.20;99.90
11320;DHT22;5715;48.234;14.320;2023-02-11T06:23:36;-2.10;99.90
11320;DHT22;5715;48.234;14.320;2023-02-11T06:26:25;-2.10;99.90
11320;DHT22;5715;48.234;14.320;2023-02-11T06:29:12;-2.00;99.90
11320;DHT22;5715;48.234;14.320;2023-02-11T06:32:00;-1.90;99.90
11320;DHT22;5715;48.234;14.320;2023-02-11T06:34:48;-1.80;99.90
11320;DHT22;5715;48.234;14.320;2023-02-11T06:37:36;-1.80;99.90
11320;DHT22;5715;48.234;14.320;2023-02-11T06:40:23;-1.70;99.90
11320;DHT22;5715;48.234;14.320;2023-02-11T06:43:11;-1.70;99.90
11320;DHT22;5715;48.234;14.320;2023-02-11T06:45:58;-1.60;99.90
11320;DHT22;5715;48.234;14.320;2023-02-11T06:48:46;-1.60;99.90
11320;DHT22;5715;48.234;14.320;2023-02-11T06:51:33;-1.60;99.90
11320;DHT22;5715;48.234;14.320;2023-02-11T06:54:21;-1.50;99.90
11320;DHT22;5715;48.234;14.320;2023-02-11T06:57:09;-1.40;99.90
11320;DHT22;5715;48.234;14.320;2023-02-11T06:59:56;-1.40;99.90
11320;DHT22;5715;48.234;14.320;2023-02-11T07:02:44;-1.40;99.90
11320;DHT22;5715;48.234;14.320;2023-02-11T07:05:31;-1.20;99.90
11320;DHT22;5715;48.234;14.320;2023-02-11T07:08:20;-1.20;99.90
11320;DHT22;5715;48.234;14.320;2023-02-11T07:11:13;-1.10;99.90
11320;DHT22;5715;48.234;14.320;2023-02-11T07:14:12;-1.10;99.90
11320;DHT22;5715;48.234;14.320;2023-02-11T07:16:59;-1.10;99.90
11320;DHT22;5715;48.234;14.320;2023-02-11T07:19:47;-1.00;99.90
11320;DHT22;5715;48.234;14.320;2023-02-11T07:22:35;-1.00;99.90
11320;DHT22;5715;48.234;14.320;2023-02-11T07:25:23;-0.90;99.90
11320;DHT22;5715;48.234;14.320;2023-02-11T07:28:10;-0.90;99.90
11320;DHT22;5715;48.234;14.320;2023-02-11T07:30:58;-0.80;99.90
11320;DHT22;5715;48.234;14.320;2023-02-11T07:33:46;-0.80;99.90
11320;DHT22;5715;48.234;14.320;2023-02-11T07:36:34;-0.70;99.90
11320;DHT22;5715;48.234;14.320;2023-02-11T07:39:21;-0.60;99.90
11320;DHT22;5715;48.234;14.320;2023-02-11T07:42:13;-0.60;99.90
11320;DHT22;5715;48.234;14.320;2023-02-11T07:45:01;-0.50;99.90
11320;DHT22;5715;48.234;14.320;2023-02-11T07:47:48;-0.50;99.90
11320;DHT22;5715;48.234;14.320;2023-02-11T07:50:36;-0.40;99.90
11320;DHT22;5715;48.234;14.320;2023-02-11T07:53:23;-0.30;99.90
11320;DHT22;5715;48.234;14.320;2023-02-11T07:56:13;-0.20;99.90
11320;DHT22;5715;48.234;14.320;2023-02-11T07:59:02;-0.20;99.90
11320;DHT22;5715;48.234;14.320;2023-02-11T08:01:50;-0.10;99.90
11320;DHT22;5715;48.234;14.320;2023-02-11T08:04:38;0.00;99.90
11320;DHT22;5715;48.234;14.320;2023-02-11T08:07:26;0.00;99.90
11320;DHT22;5715;48.234;14.320;2023-02-11T08:10:15;0.00;99.90
11320;DHT22;5715;48.234;14.320;2023-02-11T08:13:03;0.10;99.90
11320;DHT22;5715;48.234;14.320;2023-02-11T08:15:50;0.20;99.90
11320;DHT22;5715;48.234;14.320;2023-02-11T08:18:38;0.30;99.90
11320;DHT22;5715;48.234;14.320;2023-02-11T08:21:27;0.50;99.90
11320;DHT22;5715;48.234;14.320;2023-02-11T08:24:15;0.70;99.90
11320;DHT22;5715;48.234;14.320;2023-02-11T08:27:03;0.90;99.90
11320;DHT22;5715;48.234;14.320;2023-02-11T08:29:53;1.00;99.90
11320;DHT22;5715;48.234;14.320;2023-02-11T08:32:41;1.10;99.90
11320;DHT22;5715;48.234;14.320;2023-02-11T08:35:28;1.20;99.90
11320;DHT22;5715;48.234;14.320;2023-02-11T08:38:16;1.30;99.90
11320;DHT22;5715;48.234;14.320;2023-02-11T08:41:04;1.40;99.90
11320;DHT22;5715;48.234;14.320;2023-02-11T08:43:52;1.40;99.90
11320;DHT22;5715;48.234;14.320;2023-02-11T08:46:40;1.50;99.90
11320;DHT22;5715;48.234;14.320;2023-02-11T08:49:27;1.50;99.90
11320;DHT22;5715;48.234;14.320;2023-02-11T08:52:16;1.50;99.90
11320;DHT22;5715;48.234;14.320;2023-02-11T08:55:04;1.40;99.90
11320;DHT22;5715;48.234;14.320;2023-02-11T08:57:52;1.40;99.90
11320;DHT22;5715;48.234;14.320;2023-02-11T09:00:40;1.40;99.90
11320;DHT22;5715;48.234;14.320;2023-02-11T09:03:30;1.50;99.90
11320;DHT22;5715;48.234;14.320;2023-02-11T09:06:18;1.70;99.90
11320;DHT22;5715;48.234;14.320;2023-02-11T09:09:10;2.00;99.90
11320;DHT22;5715;48.234;14.320;2023-02-11T09:11:59;2.30;99.90
11320;DHT22;5715;48.234;14.320;2023-02-11T09:14:47;2.50;99.90
11320;DHT22;5715;48.234;14.320;2023-02-11T09:17:35;2.50;99.90
11320;DHT22;5715;48.234;14.320;2023-02-11T09:20:22;2.60;99.90
11320;DHT22;5715;48.234;14.320;2023-02-11T09:23:12;2.50;99.90
11320;DHT22;5715;48.234;14.320;2023-02-11T09:26:06;2.50;99.90
11320;DHT22;5715;48.234;14.320;2023-02-11T09:28:55;2.60;99.90
11320;DHT22;5715;48.234;14.320;2023-02-11T09:31:43;2.60;99.90
11320;DHT22;5715;48.234;14.320;2023-02-11T09:34:31;2.60;99.90
11320;DHT22;5715;48.234;14.320;2023-02-11T09:37:22;2.70;99.90
11320;DHT22;5715;48.234;14.320;2023-02-11T09:40:10;2.70;99.90
11320;DHT22;5715;48.234;14.320;2023-02-11T09:43:11;2.70;99.90
11320;DHT22;5715;48.234;14.320;2023-02-11T09:46:00;2.70;99.90
11320;DHT22;5715;48.234;14.320;2023-02-11T09:48:50;2.80;99.90
11320;DHT22;5715;48.234;14.320;2023-02-11T09:51:54;2.60;99.90
11320;DHT22;5715;48.234;14.320;2023-02-11T09:54:57;2.70;99.90
11320;DHT22;5715;48.234;14.320;2023-02-11T09:57:46;2.70;99.90
11320;DHT22;5715;48.234;14.320;2023-02-11T10:10:54;2.90;99.90
11320;DHT22;5715;48.234;14.320;2023-02-11T10:23:54;3.20;99.90
11320;DHT22;5715;48.234;14.320;2023-02-11T10:26:45;3.40;99.90
11320;DHT22;5715;48.234;14.320;2023-02-11T10:29:52;3.60;99.90
11320;DHT22;5715;48.234;14.320;2023-02-11T10:36:11;3.70;99.90
11320;DHT22;5715;48.234;14.320;2023-02-11T10:39:16;3.70;99.90
11320;DHT22;5715;48.234;14.320;2023-02-11T10:42:09;3.80;99.90
11320;DHT22;5715;48.234;14.320;2023-02-11T10:45:04;3.70;99.90
11320;DHT22;5715;48.234;14.320;2023-02-11T10:47:53;3.60;99.90
11320;DHT22;5715;48.234;14.320;2023-02-11T10:50:41;3.70;99.90
11320;DHT22;5715;48.234;14.320;2023-02-11T10:53:29;3.90;99.90
11320;DHT22;5715;48.234;14.320;2023-02-11T10:56:26;4.00;99.90
11320;DHT22;5715;48.234;14.320;2023-02-11T11:02:31;4.00;99.90
11320;DHT22;5715;48.234;14.320;2023-02-11T11:05:49;3.80;99.90
11320;DHT22;5715;48.234;14.320;2023-02-11T11:08:50;3.80;99.90
11320;DHT22;5715;48.234;14.320;2023-02-11T11:11:51;3.80;99.90
11320;DHT22;5715;48.234;14.320;2023-02-11T11:14:39;3.70;99.90
11320;DHT22;5715;48.234;14.320;2023-02-11T11:17:27;3.60;99.90
11320;DHT22;5715;48.234;14.320;2023-02-11T11:23:19;3.40;99.90
11320;DHT22;5715;48.234;14.320;2023-02-11T11:26:13;3.50;99.90
11320;DHT22;5715;48.234;14.320;2023-02-11T11:29:09;3.40;99.90
11320;DHT22;5715;48.234;14.320;2023-02-11T11:32:24;3.40;99.90
11320;DHT22;5715;48.234;14.320;2023-02-11T11:35:27;3.40;99.90
11320;DHT22;5715;48.234;14.320;2023-02-11T11:38:16;3.50;99.90
11320;DHT22;5715;48.234;14.320;2023-02-11T11:44:43;3.60;99.90
11320;DHT22;5715;48.234;14.320;2023-02-11T11:50:58;3.50;99.90
11320;DHT22;5715;48.234;14.320;2023-02-11T11:54:10;3.50;99.90
11320;DHT22;5715;48.234;14.320;2023-02-11T11:57:04;3.50;99.90
11320;DHT22;5715;48.234;14.320;2023-02-11T12:00:00;3.70;99.90
11320;DHT22;5715;48.234;14.320;2023-02-11T12:09:36;3.90;99.90
11320;DHT22;5715;48.234;14.320;2023-02-11T12:16:11;4.10;99.90
11320;DHT22;5715;48.234;14.320;2023-02-11T12:22:23;4.20;99.90
11320;DHT22;5715;48.234;14.320;2023-02-11T12:25:25;4.20;99.90
11320;DHT22;5715;48.234;14.320;2023-02-11T12:28:37;4.20;99.90
11320;DHT22;5715;48.234;14.320;2023-02-11T12:38:36;4.00;99.90
11320;DHT22;5715;48.234;14.320;2023-02-11T12:41:56;3.90;99.90
11320;DHT22;5715;48.234;14.320;2023-02-11T12:45:34;3.90;99.90
11320;DHT22;5715;48.234;14.320;2023-02-11T12:51:54;4.10;99.90
11320;DHT22;5715;48.234;14.320;2023-02-11T12:54:53;4.20;99.90
11320;DHT22;5715;48.234;14.320;2023-02-11T12:57:49;4.20;99.90
11320;DHT22;5715;48.234;14.320;2023-02-11T13:00:54;4.10;99.90
11320;DHT22;5715;48.234;14.320;2023-02-11T13:04:05;4.10;99.90
11320;DHT22;5715;48.234;14.320;2023-02-11T13:06:59;4.00;99.90
11320;DHT22;5715;48.234;14.320;2023-02-11T13:10:29;3.80;99.90
11320;DHT22;5715;48.234;14.320;2023-02-11T13:13:46;3.70;99.90
11320;DHT22;5715;48.234;14.320;2023-02-11T13:16:49;3.70;99.90
11320;DHT22;5715;48.234;14.320;2023-02-11T13:19:44;3.70;99.90
11320;DHT22;5715;48.234;14.320;2023-02-11T13:22:44;3.70;99.90
11320;DHT22;5715;48.234;14.320;2023-02-11T13:26:01;3.80;99.90
11320;DHT22;5715;48.234;14.320;2023-02-11T13:32:10;3.70;99.90
11320;DHT22;5715;48.234;14.320;2023-02-11T13:34:59;3.80;99.90
11320;DHT22;5715;48.234;14.320;2023-02-11T13:37:47;3.80;99.90
11320;DHT22;5715;48.234;14.320;2023-02-11T13:40:37;3.90;99.90
11320;DHT22;5715;48.234;14.320;2023-02-11T13:43:26;3.90;99.90
11320;DHT22;5715;48.234;14.320;2023-02-11T13:46:15;3.80;99.90
11320;DHT22;5715;48.234;14.320;2023-02-11T13:49:03;3.80;99.90
11320;DHT22;5715;48.234;14.320;2023-02-11T13:51:52;3.70;99.90
11320;DHT22;5715;48.234;14.320;2023-02-11T13:54:46;3.70;99.90
11320;DHT22;5715;48.234;14.320;2023-02-11T13:57:39;3.70;99.90
11320;DHT22;5715;48.234;14.320;2023-02-11T14:03:39;3.70;99.90
11320;DHT22;5715;48.234;14.320;2023-02-11T14:07:29;3.60;99.90
11320;DHT22;5715;48.234;14.320;2023-02-11T14:19:58;3.60;99.90
11320;DHT22;5715;48.234;14.320;2023-02-11T14:22:51;3.60;99.90
11320;DHT22;5715;48.234;14.320;2023-02-11T14:25:40;3.70;99.90
11320;DHT22;5715;48.234;14.320;2023-02-11T14:28:31;3.70;99.90
11320;DHT22;5715;48.234;14.320;2023-02-11T14:31:23;3.60;99.90
11320;DHT22;5715;48.234;14.320;2023-02-11T14:38:11;3.70;99.90
11320;DHT22;5715;48.234;14.320;2023-02-11T14:47:18;3.70;99.90
11320;DHT22;5715;48.234;14.320;2023-02-11T14:50:25;3.70;99.90
11320;DHT22;5715;48.234;14.320;2023-02-11T14:53:18;3.70;99.90
11320;DHT22;5715;48.234;14.320;2023-02-11T14:56:24;3.80;99.90
11320;DHT22;5715;48.234;14.320;2023-02-11T14:59:19;3.80;99.90
11320;DHT22;5715;48.234;14.320;2023-02-11T15:02:35;3.80;99.90
11320;DHT22;5715;48.234;14.320;2023-02-11T15:05:27;3.90;99.90
11320;DHT22;5715;48.234;14.320;2023-02-11T15:08:15;3.80;99.90
11320;DHT22;5715;48.234;14.320;2023-02-11T15:11:09;3.90;99.90
11320;DHT22;5715;48.234;14.320;2023-02-11T15:14:15;3.90;99.90
11320;DHT22;5715;48.234;14.320;2023-02-11T15:17:08;3.90;99.90
11320;DHT22;5715;48.234;14.320;2023-02-11T15:19:58;4.00;99.90
11320;DHT22;5715;48.234;14.320;2023-02-11T15:22:51;4.00;99.90
11320;DHT22;5715;48.234;14.320;2023-02-11T15:25:43;3.90;99.90
11320;DHT22;5715;48.234;14.320;2023-02-11T15:28:37;3.90;99.90
11320;DHT22;5715;48.234;14.320;2023-02-11T15:31:26;3.90;99.90
11320;DHT22;5715;48.234;14.320;2023-02-11T15:34:14;3.90;99.90
11320;DHT22;5715;48.234;14.320;2023-02-11T15:37:04;4.00;99.90
11320;DHT22;5715;48.234;14.320;2023-02-11T15:39:53;3.90;99.90
11320;DHT22;5715;48.234;14.320;2023-02-11T15:46:02;3.90;99.90
11320;DHT22;5715;48.234;14.320;2023-02-11T15:48:52;3.90;99.90
11320;DHT22;5715;48.234;14.320;2023-02-11T15:51:45;3.90;99.90
11320;DHT22;5715;48.234;14.320;2023-02-11T15:54:33;3.80;99.90
11320;DHT22;5715;48.234;14.320;2023-02-11T15:57:21;3.80;99.90
11320;DHT22;5715;48.234;14.320;2023-02-11T16:00:16;3.80;99.90
11320;DHT22;5715;48.234;14.320;2023-02-11T16:03:21;3.80;99.90
11320;DHT22;5715;48.234;14.320;2023-02-11T16:06:25;3.80;99.90
11320;DHT22;5715;48.234;14.320;2023-02-11T16:09:30;3.80;99.90
11320;DHT22;5715;48.234;14.320;2023-02-11T16:12:24;3.70;99.90
11320;DHT22;5715;48.234;14.320;2023-02-11T16:18:29;3.70;99.90
11320;DHT22;5715;48.234;14.320;2023-02-11T16:21:34;3.60;99.90
11320;DHT22;5715;48.234;14.320;2023-02-11T16:24:33;3.50;99.90
11320;DHT22;5715;48.234;14.320;2023-02-11T16:27:26;3.50;99.90
11320;DHT22;5715;48.234;14.320;2023-02-11T16:30:31;3.50;99.90
11320;DHT22;5715;48.234;14.320;2023-02-11T16:33:21;3.40;99.90
11320;DHT22;5715;48.234;14.320;2023-02-11T16:36:13;3.40;99.90
11320;DHT22;5715;48.234;14.320;2023-02-11T16:39:03;3.40;99.90
11320;DHT22;5715;48.234;14.320;2023-02-11T16:41:51;3.40;99.90
11320;DHT22;5715;48.234;14.320;2023-02-11T16:44:38;3.40;99.90
11320;DHT22;5715;48.234;14.320;2023-02-11T16:47:28;3.40;99.90
11320;DHT22;5715;48.234;14.320;2023-02-11T16:50:22;3.40;99.90
11320;DHT22;5715;48.234;14.320;2023-02-11T16:53:13;3.40;99.90
11320;DHT22;5715;48.234;14.320;2023-02-11T16:56:05;3.30;99.90
11320;DHT22;5715;48.234;14.320;2023-02-11T16:58:52;3.30;99.90
11320;DHT22;5715;48.234;14.320;2023-02-11T17:01:41;3.20;99.90
11320;DHT22;5715;48.234;14.320;2023-02-11T17:04:31;3.20;99.90
11320;DHT22;5715;48.234;14.320;2023-02-11T17:07:20;3.10;99.90
11320;DHT22;5715;48.234;14.320;2023-02-11T17:10:33;3.00;99.90
11320;DHT22;5715;48.234;14.320;2023-02-11T17:13:21;2.90;99.90
11320;DHT22;5715;48.234;14.320;2023-02-11T17:16:18;2.80;99.90
11320;DHT22;5715;48.234;14.320;2023-02-11T17:19:11;2.70;99.90
11320;DHT22;5715;48.234;14.320;2023-02-11T17:22:00;2.60;99.90
11320;DHT22;5715;48.234;14.320;2023-02-11T17:24:47;2.60;99.90
11320;DHT22;5715;48.234;14.320;2023-02-11T17:27:35;2.50;99.90
11320;DHT22;5715;48.234;14.320;2023-02-11T17:30:23;2.50;99.90
11320;DHT22;5715;48.234;14.320;2023-02-11T17:33:11;2.50;99.90
11320;DHT22;5715;48.234;14.320;2023-02-11T17:35:58;2.50;99.90
11320;DHT22;5715;48.234;14.320;2023-02-11T17:38:50;2.50;99.90
11320;DHT22;5715;48.234;14.320;2023-02-11T17:41:38;2.50;99.90
11320;DHT22;5715;48.234;14.320;2023-02-11T17:44:27;2.60;99.90
11320;DHT22;5715;48.234;14.320;2023-02-11T17:47:14;2.70;99.90
11320;DHT22;5715;48.234;14.320;2023-02-11T17:50:02;2.80;99.90
11320;DHT22;5715;48.234;14.320;2023-02-11T17:52:50;2.80;99.90
11320;DHT22;5715;48.234;14.320;2023-02-11T17:55:38;2.80;99.90
11320;DHT22;5715;48.234;14.320;2023-02-11T17:58:25;2.90;99.90
11320;DHT22;5715;48.234;14.320;2023-02-11T18:01:13;2.90;99.90
11320;DHT22;5715;48.234;14.320;2023-02-11T18:04:02;3.00;99.90
11320;DHT22;5715;48.234;14.320;2023-02-11T18:06:50;3.00;99.90
11320;DHT22;5715;48.234;14.320;2023-02-11T18:09:40;3.00;99.90
11320;DHT22;5715;48.234;14.320;2023-02-11T18:12:28;3.00;99.90
11320;DHT22;5715;48.234;14.320;2023-02-11T18:15:15;3.00;99.90
11320;DHT22;5715;48.234;14.320;2023-02-11T18:18:03;3.10;99.90
11320;DHT22;5715;48.234;14.320;2023-02-11T18:20:59;3.10;99.90
11320;DHT22;5715;48.234;14.320;2023-02-11T18:23:48;3.10;99.90
11320;DHT22;5715;48.234;14.320;2023-02-11T18:26:36;3.20;99.90
11320;DHT22;5715;48.234;14.320;2023-02-11T18:29:24;3.20;99.90
11320;DHT22;5715;48.234;14.320;2023-02-11T18:32:12;3.20;99.90
11320;DHT22;5715;48.234;14.320;2023-02-11T18:35:00;3.20;99.90
11320;DHT22;5715;48.234;14.320;2023-02-11T18:37:47;3.20;99.90
11320;DHT22;5715;48.234;14.320;2023-02-11T18:40:40;3.20;99.90
11320;DHT22;5715;48.234;14.320;2023-02-11T18:43:29;3.20;99.90
11320;DHT22;5715;48.234;14.320;2023-02-11T18:46:19;3.20;99.90
11320;DHT22;5715;48.234;14.320;2023-02-11T18:49:09;3.30;99.90
11320;DHT22;5715;48.234;14.320;2023-02-11T18:51:59;3.30;99.90
11320;DHT22;5715;48.234;14.320;2023-02-11T18:54:49;3.40;99.90
11320;DHT22;5715;48.234;14.320;2023-02-11T18:57:38;3.40;99.90
11320;DHT22;5715;48.234;14.320;2023-02-11T19:00:25;3.40;99.90
11320;DHT22;5715;48.234;14.320;2023-02-11T19:03:13;3.40;99.90
11320;DHT22;5715;48.234;14.320;2023-02-11T19:06:01;3.40;99.90
11320;DHT22;5715;48.234;14.320;2023-02-11T19:08:49;3.50;99.90
11320;DHT22;5715;48.234;14.320;2023-02-11T19:11:38;3.50;99.90
11320;DHT22;5715;48.234;14.320;2023-02-11T19:14:40;3.40;99.90
11320;DHT22;5715;48.234;14.320;2023-02-11T19:17:28;3.40;99.90
11320;DHT22;5715;48.234;14.320;2023-02-11T19:20:16;3.30;99.90
11320;DHT22;5715;48.234;14.320;2023-02-11T19:23:03;3.30;99.90
11320;DHT22;5715;48.234;14.320;2023-02-11T19:25:52;3.20;99.90
11320;DHT22;5715;48.234;14.320;2023-02-11T19:28:44;3.20;99.90
11320;DHT22;5715;48.234;14.320;2023-02-11T19:31:32;3.20;99.90
11320;DHT22;5715;48.234;14.320;2023-02-11T19:34:21;3.20;99.90
11320;DHT22;5715;48.234;14.320;2023-02-11T19:37:10;3.20;99.90
11320;DHT22;5715;48.234;14.320;2023-02-11T19:39:59;3.20;99.90
11320;DHT22;5715;48.234;14.320;2023-02-11T19:42:46;3.30;99.90
11320;DHT22;5715;48.234;14.320;2023-02-11T19:45:36;3.40;99.90
11320;DHT22;5715;48.234;14.320;2023-02-11T19:48:24;3.30;99.90
11320;DHT22;5715;48.234;14.320;2023-02-11T19:51:12;3.30;99.90
11320;DHT22;5715;48.234;14.320;2023-02-11T19:54:00;3.30;99.90
11320;DHT22;5715;48.234;14.320;2023-02-11T19:56:47;3.30;99.90
11320;DHT22;5715;48.234;14.320;2023-02-11T19:59:35;3.30;99.90
11320;DHT22;5715;48.234;14.320;2023-02-11T20:02:23;3.30;99.90
11320;DHT22;5715;48.234;14.320;2023-02-11T20:05:10;3.30;99.90
11320;DHT22;5715;48.234;14.320;2023-02-11T20:07:58;3.40;99.90
11320;DHT22;5715;48.234;14.320;2023-02-11T20:10:46;3.50;99.90
11320;DHT22;5715;48.234;14.320;2023-02-11T20:13:34;3.40;99.90
11320;DHT22;5715;48.234;14.320;2023-02-11T20:16:26;3.50;99.90
11320;DHT22;5715;48.234;14.320;2023-02-11T20:19:33;3.60;99.90
11320;DHT22;5715;48.234;14.320;2023-02-11T20:22:21;3.60;99.90
11320;DHT22;5715;48.234;14.320;2023-02-11T20:25:08;3.70;99.90
11320;DHT22;5715;48.234;14.320;2023-02-11T20:27:57;3.70;99.90